Time;durP1;ratioP1;P1;durP2;ratioP2;P2;SDS_P1;SDS_P2;PMS_P1;PMS_P2;Temp;Humidity;BMP_temperature;BMP_pressure;BME280_temperature;BME280_humidity;BME280_pressure;Samples;Min_cycle;Max_cycle;Signal;HPM_P1;HPM_P2
2021/10/21 00:01:21;;;;;;;8.70;7.30;;;;;;;14.38;59.00;99009.54;139059;1184;106612;-80
2021/10/21 00:04:26;;;;;;;11.50;7.60;;;;;;;14.34;59.02;99001.67;138993;1190;108588;-80
2021/10/21 00:07:32;;;;;;;10.80;8.30;;;;;;;14.31;59.05;98993.49;139164;1189;108363;-81
2021/10/21 00:10:37;;;;;;;10.90;7.40;;;;;;;14.27;59.38;98993.62;139062;1184;108580;-80
2021/10/21 00:13:43;;;;;;;10.90;8.30;;;;;;;14.26;59.23;98982.76;139087;1191;108232;-80
2021/10/21 00:16:49;;;;;;;10.40;8.20;;;;;;;14.23;59.43;98983.30;139002;1188;108442;-81
2021/10/21 00:19:55;;;;;;;12.20;8.20;;;;;;;14.19;59.27;98977.57;139122;1184;108309;-77
2021/10/21 00:23:01;;;;;;;13.90;8.40;;;;;;;14.16;59.39;98980.18;139125;1184;107357;-78
2021/10/21 00:26:07;;;;;;;9.70;7.90;;;;;;;14.12;59.39;98969.53;138901;1184;108257;-79
2021/10/21 00:29:13;;;;;;;10.70;8.50;;;;;;;14.10;59.55;98971.80;138942;1184;108093;-79
2021/10/21 00:32:18;;;;;;;10.70;7.80;;;;;;;14.07;59.48;98968.39;138960;1184;108341;-78
2021/10/21 00:35:24;;;;;;;10.60;7.80;;;;;;;14.05;59.60;98963.17;139019;1184;108563;-78
2021/10/21 00:38:29;;;;;;;9.50;7.70;;;;;;;14.03;59.44;98959.52;138958;1190;108482;-78
2021/10/21 00:41:35;;;;;;;13.50;8.40;;;;;;;14.01;59.61;98956.26;138942;1184;108448;-78
2021/10/21 00:44:40;;;;;;;9.00;7.70;;;;;;;13.99;59.70;98952.22;138971;1183;108503;-78
2021/10/21 00:47:45;;;;;;;12.20;8.60;;;;;;;13.96;59.80;98942.60;138915;1183;108395;-78
2021/10/21 00:50:51;;;;;;;11.10;8.50;;;;;;;13.93;59.71;98944.70;138960;1191;108426;-77
2021/10/21 00:53:57;;;;;;;10.60;7.80;;;;;;;13.92;59.79;98946.19;138945;1190;108670;-77
2021/10/21 00:57:05;;;;;;;11.60;8.30;;;;;;;13.90;59.78;98941.58;138983;1182;107434;-76
2021/10/21 01:00:12;;;;;;;11.00;8.10;;;;;;;13.89;59.96;98935.79;138944;1184;108612;-77
2021/10/21 01:03:17;;;;;;;10.80;8.60;;;;;;;13.88;59.95;98929.90;138993;1184;108455;-77
2021/10/21 01:06:23;;;;;;;11.60;7.90;;;;;;;13.87;59.87;98926.14;138961;1184;108650;-77
2021/10/21 01:09:30;;;;;;;11.90;8.10;;;;;;;13.86;59.91;98921.08;138907;1184;108665;-77
2021/10/21 01:12:36;;;;;;;9.90;7.80;;;;;;;13.85;60.24;98919.00;138928;1184;107344;-77
2021/10/21 01:15:42;;;;;;;10.90;7.90;;;;;;;13.85;60.13;98918.30;138991;1190;108427;-77
2021/10/21 01:18:47;;;;;;;11.60;8.10;;;;;;;13.84;60.17;98915.17;138882;1184;108427;-77
2021/10/21 01:21:55;;;;;;;10.70;8.30;;;;;;;13.84;60.12;98912.24;139016;1184;108471;-76
2021/10/21 01:25:00;;;;;;;9.80;8.10;;;;;;;13.82;60.32;98908.83;138950;1184;108395;-76
2021/10/21 01:28:06;;;;;;;9.00;7.20;;;;;;;13.82;60.38;98897.67;138926;1184;108344;-76
2021/10/21 01:31:12;;;;;;;10.40;7.20;;;;;;;13.82;60.32;98894.59;139061;1190;107572;-77
2021/10/21 01:34:18;;;;;;;11.10;7.60;;;;;;;13.86;60.29;98888.56;138975;1183;108490;-78
2021/10/21 01:37:23;;;;;;;10.10;7.40;;;;;;;13.92;60.36;98888.06;138984;1182;108432;-78
2021/10/21 01:40:29;;;;;;;11.60;8.30;;;;;;;13.97;60.32;98882.33;138920;1184;108790;-78
2021/10/21 01:43:40;;;;;;;12.20;8.30;;;;;;;14.02;60.23;98881.98;139020;1184;107771;-78
2021/10/21 01:46:46;;;;;;;11.10;7.70;;;;;;;14.05;60.32;98873.80;139022;1184;108688;-81
2021/10/21 01:49:51;;;;;;;14.30;8.40;;;;;;;14.05;60.25;98870.13;139068;1184;108506;-80
2021/10/21 01:52:58;;;;;;;9.90;7.40;;;;;;;14.06;60.36;98861.84;139137;1183;107472;-79
2021/10/21 01:56:03;;;;;;;12.10;8.20;;;;;;;14.04;60.14;98853.95;139033;1190;108439;-79
2021/10/21 01:59:09;;;;;;;13.90;7.90;;;;;;;14.01;60.41;98855.13;139073;1184;108467;-81
2021/10/21 02:02:14;;;;;;;9.20;7.40;;;;;;;13.98;60.37;98847.54;139135;1188;108398;-80
2021/10/21 02:05:21;;;;;;;12.50;8.00;;;;;;;13.93;60.37;98847.30;139170;1183;108563;-81
2021/10/21 02:08:26;;;;;;;9.60;7.40;;;;;;;13.88;60.60;98840.27;139202;1183;108555;-81
2021/10/21 02:11:31;;;;;;;9.20;7.90;;;;;;;13.85;60.39;98835.07;139009;1182;108546;-77
2021/10/21 02:14:37;;;;;;;9.90;7.10;;;;;;;13.81;60.51;98831.44;138987;1190;108587;-77
2021/10/21 02:17:42;;;;;;;9.80;7.80;;;;;;;13.77;60.62;98818.63;138910;1184;108467;-80
2021/10/21 02:24:46;;;;;;;10.20;8.20;;;;;;;13.67;60.80;98805.81;139181;1183;109450;-78
2021/10/21 02:27:52;;;;;;;9.60;7.60;;;;;;;13.62;60.97;98806.31;138976;1183;108481;-78
2021/10/21 02:30:57;;;;;;;10.00;7.40;;;;;;;13.58;60.91;98801.83;139176;1183;108178;-81
2021/10/21 02:34:03;;;;;;;10.50;7.70;;;;;;;13.55;60.97;98801.38;139051;1184;108430;-80
2021/10/21 02:37:08;;;;;;;11.90;7.70;;;;;;;13.51;61.04;98798.55;139142;1184;108398;-79
2021/10/21 02:40:15;;;;;;;9.80;7.00;;;;;;;13.48;61.18;98797.26;138984;1191;108361;-82
2021/10/21 02:43:20;;;;;;;9.60;7.20;;;;;;;13.49;61.21;98792.80;139016;1183;108170;-75
2021/10/21 02:46:26;;;;;;;15.20;7.80;;;;;;;13.54;61.14;98784.89;139029;1184;108358;-75
2021/10/21 02:49:31;;;;;;;10.90;7.60;;;;;;;13.60;61.15;98780.17;139027;1183;107415;-74
2021/10/21 02:52:37;;;;;;;11.20;8.20;;;;;;;13.65;61.13;98778.97;138912;1190;108612;-73
2021/10/21 02:55:43;;;;;;;10.50;7.50;;;;;;;13.66;61.09;98773.23;138963;1184;107393;-73
2021/10/21 02:58:48;;;;;;;11.50;8.50;;;;;;;13.66;61.22;98772.70;138906;1184;108384;-76
2021/10/21 03:01:54;;;;;;;11.30;8.20;;;;;;;13.65;61.28;98777.65;138917;1184;108453;-74
2021/10/21 03:04:59;;;;;;;10.70;8.40;;;;;;;13.63;61.13;98770.33;138893;1183;107921;-75
2021/10/21 03:08:05;;;;;;;11.00;8.90;;;;;;;13.59;61.39;98762.83;139034;1183;107481;-75
2021/10/21 03:11:10;;;;;;;12.60;8.40;;;;;;;13.53;61.29;98767.30;139022;1183;107605;-76
2021/10/21 03:14:16;;;;;;;10.60;8.30;;;;;;;13.49;61.28;98770.22;138953;1182;108362;-74
2021/10/21 03:17:22;;;;;;;14.30;9.50;;;;;;;13.44;61.52;98757.90;138963;1184;108589;-74
2021/10/21 03:20:27;;;;;;;10.90;8.80;;;;;;;13.40;61.56;98755.02;138981;1183;107159;-75
2021/10/21 03:23:33;;;;;;;12.60;9.00;;;;;;;13.37;61.54;98737.91;138954;1190;108761;-75
2021/10/21 03:26:38;;;;;;;12.20;8.80;;;;;;;13.35;61.58;98728.10;138986;1190;108376;-75
2021/10/21 03:29:44;;;;;;;13.60;7.80;;;;;;;13.34;61.84;98719.01;138977;1183;108376;-74
2021/10/21 03:32:49;;;;;;;11.50;8.30;;;;;;;13.34;61.84;98708.28;138960;1190;108557;-75
2021/10/21 03:35:55;;;;;;;12.80;8.60;;;;;;;13.38;61.97;98710.30;138981;1184;108206;-75
2021/10/21 03:39:02;;;;;;;13.80;8.40;;;;;;;13.45;61.85;98712.67;139009;1184;108544;-75
2021/10/21 03:42:09;;;;;;;10.20;8.40;;;;;;;13.52;61.82;98706.69;138993;1184;108311;-75
2021/10/21 03:45:14;;;;;;;12.20;8.60;;;;;;;13.58;61.84;98702.50;138992;1184;108499;-75
2021/10/21 03:48:20;;;;;;;11.10;8.80;;;;;;;13.61;61.87;98694.74;139005;1184;108401;-75
2021/10/21 03:51:25;;;;;;;13.40;9.10;;;;;;;13.63;61.76;98692.19;138973;1184;108173;-76
2021/10/21 03:54:31;;;;;;;12.00;8.80;;;;;;;13.63;61.95;98691.48;138972;1184;108136;-76
2021/10/21 03:57:37;;;;;;;14.60;9.10;;;;;;;13.62;61.88;98683.73;138992;1183;108440;-76
2021/10/21 04:00:44;;;;;;;13.30;9.60;;;;;;;13.59;61.87;98677.85;139016;1190;108455;-76
2021/10/21 04:03:49;;;;;;;12.10;9.20;;;;;;;13.52;62.03;98671.68;139000;1182;108339;-76
2021/10/21 04:06:54;;;;;;;15.60;9.70;;;;;;;13.46;62.05;98677.77;139024;1184;108409;-78
2021/10/21 04:10:00;;;;;;;13.20;10.00;;;;;;;13.40;62.10;98679.46;139004;1183;108558;-76
2021/10/21 04:13:05;;;;;;;13.20;9.30;;;;;;;13.35;62.20;98667.77;138986;1184;108659;-76
2021/10/21 04:16:10;;;;;;;15.00;9.80;;;;;;;13.31;62.27;98632.34;139033;1190;108553;-76
2021/10/21 04:19:16;;;;;;;12.40;8.90;;;;;;;13.29;62.22;98621.29;139010;1190;108587;-73
2021/10/21 04:22:21;;;;;;;11.00;8.30;;;;;;;13.28;62.44;98648.83;138973;1184;108514;-74
2021/10/21 04:25:27;;;;;;;14.20;9.10;;;;;;;13.32;62.31;98644.61;139017;1187;108278;-75
2021/10/21 04:28:33;;;;;;;12.80;8.90;;;;;;;13.40;62.19;98642.09;138994;1184;108366;-77
2021/10/21 04:31:38;;;;;;;12.60;9.40;;;;;;;13.46;62.27;98635.14;138906;1184;108562;-75
2021/10/21 04:34:43;;;;;;;14.00;9.80;;;;;;;13.49;62.27;98624.45;138919;1184;108557;-77
2021/10/21 04:37:49;;;;;;;14.80;9.80;;;;;;;13.50;62.17;98617.27;138978;1189;108687;-75
2021/10/21 04:40:54;;;;;;;15.20;9.50;;;;;;;13.50;62.16;98608.58;138926;1184;108582;-76
2021/10/21 04:44:00;;;;;;;10.80;8.80;;;;;;;13.49;62.29;98604.01;138902;1184;108371;-76
2021/10/21 04:47:05;;;;;;;13.40;10.00;;;;;;;13.49;62.23;98599.71;138937;1190;108610;-76
2021/10/21 04:50:11;;;;;;;12.60;9.80;;;;;;;13.49;62.24;98600.00;138966;1190;108458;-76
2021/10/21 04:53:17;;;;;;;12.60;9.80;;;;;;;13.45;62.29;98595.95;139010;1190;108428;-77
2021/10/21 04:56:23;;;;;;;12.50;9.80;;;;;;;13.38;62.38;98585.05;138988;1184;108463;-77
2021/10/21 04:59:28;;;;;;;14.10;9.40;;;;;;;13.32;62.37;98583.87;138955;1190;108683;-79
2021/10/21 05:02:34;;;;;;;14.40;10.00;;;;;;;13.27;62.49;98578.14;138962;1190;108595;-74
2021/10/21 05:05:41;;;;;;;13.00;9.20;;;;;;;13.22;62.44;98571.80;139025;1190;108598;-73
2021/10/21 05:08:46;;;;;;;12.70;9.30;;;;;;;13.17;62.68;98562.30;139054;1184;108519;-71
2021/10/21 05:11:52;;;;;;;12.50;8.80;;;;;;;13.15;62.63;98560.13;139576;1190;108477;-71
2021/10/21 05:14:57;;;;;;;11.80;8.90;;;;;;;13.18;62.67;98551.92;139191;1184;108548;-73
2021/10/21 05:18:03;;;;;;;12.10;9.10;;;;;;;13.26;62.69;98556.49;138992;1184;109362;-73
2021/10/21 05:21:08;;;;;;;11.80;9.20;;;;;;;13.35;62.65;98561.30;138956;1190;108431;-73
2021/10/21 05:24:13;;;;;;;11.60;9.60;;;;;;;13.42;62.80;98550.54;139051;1184;108593;-72
2021/10/21 05:27:19;;;;;;;13.20;9.50;;;;;;;13.47;62.64;98544.45;138987;1184;107526;-71
2021/10/21 05:30:24;;;;;;;13.90;9.70;;;;;;;13.50;62.58;98544.92;139063;1183;109553;-71
2021/10/21 05:33:35;;;;;;;12.20;9.30;;;;;;;13.49;62.73;98542.91;138981;1183;107590;-77
2021/10/21 05:36:40;;;;;;;16.10;9.50;;;;;;;13.50;62.72;98547.07;138974;1183;107828;-78
2021/10/21 05:39:45;;;;;;;11.70;9.20;;;;;;;13.51;62.73;98544.70;139123;1183;108458;-71
2021/10/21 05:42:51;;;;;;;12.30;9.40;;;;;;;13.52;62.76;98534.73;138992;1190;108554;-72
2021/10/21 05:45:56;;;;;;;13.80;10.20;;;;;;;13.53;62.71;98527.23;138905;1183;108576;-73
2021/10/21 05:49:01;;;;;;;13.60;9.50;;;;;;;13.55;62.81;98528.08;138921;1183;108278;-72
2021/10/21 05:52:07;;;;;;;12.20;8.70;;;;;;;13.58;62.88;98526.37;139035;1190;108526;-73
2021/10/21 05:55:12;;;;;;;12.50;8.40;;;;;;;13.64;62.81;98519.98;138926;1190;108368;-73
2021/10/21 05:58:18;;;;;;;13.80;9.20;;;;;;;13.73;62.88;98524.11;138966;1185;108395;-73
2021/10/21 06:01:24;;;;;;;13.10;9.80;;;;;;;13.86;62.73;98528.92;138990;1189;108403;-73
2021/10/21 06:04:29;;;;;;;12.80;8.80;;;;;;;13.97;62.60;98521.95;138945;1183;108528;-72
2021/10/21 06:07:35;;;;;;;12.30;9.00;;;;;;;14.10;62.66;98521.48;138908;1184;108569;-73
2021/10/21 06:10:40;;;;;;;12.00;9.00;;;;;;;14.24;62.66;98507.09;138964;1182;108748;-72
2021/10/21 06:13:45;;;;;;;11.80;9.30;;;;;;;14.34;62.48;98509.67;138900;1183;108584;-72
2021/10/21 06:16:51;;;;;;;11.00;9.10;;;;;;;14.41;62.50;98508.39;138940;1184;108581;-72
2021/10/21 06:19:57;;;;;;;13.50;9.40;;;;;;;14.45;62.46;98514.49;138972;1183;108364;-72
2021/10/21 06:23:02;;;;;;;11.20;9.10;;;;;;;14.47;62.54;98527.20;138986;1184;108381;-72
2021/10/21 06:26:07;;;;;;;11.60;8.70;;;;;;;14.44;62.54;98535.27;138884;1184;108097;-72
2021/10/21 06:29:13;;;;;;;11.70;9.30;;;;;;;14.42;62.58;98538.42;138950;1184;107889;-73
2021/10/21 06:32:18;;;;;;;11.70;9.60;;;;;;;14.41;62.58;98544.88;138923;1184;108809;-72
2021/10/21 06:35:24;;;;;;;12.10;9.60;;;;;;;14.41;62.46;98556.19;138950;1184;107018;-72
2021/10/21 06:38:30;;;;;;;11.20;9.30;;;;;;;14.43;62.66;98555.09;138916;1184;108360;-72
2021/10/21 06:41:36;;;;;;;12.90;9.30;;;;;;;14.48;62.56;98555.54;138998;1183;108821;-72
2021/10/21 06:44:41;;;;;;;12.50;10.10;;;;;;;14.53;62.50;98561.48;138921;1183;108742;-73
2021/10/21 06:47:47;;;;;;;12.20;9.40;;;;;;;14.53;62.57;98562.35;139006;1183;108386;-72
2021/10/21 06:50:53;;;;;;;14.90;9.10;;;;;;;14.52;62.58;98560.02;139006;1184;108438;-71
2021/10/21 06:53:58;;;;;;;10.70;8.30;;;;;;;14.52;62.57;98564.35;138926;1191;108414;-76
2021/10/21 06:57:03;;;;;;;12.30;8.10;;;;;;;14.52;62.62;98561.88;139217;1184;108639;-77
2021/10/21 07:00:13;;;;;;;11.70;8.90;;;;;;;14.53;62.70;98553.15;139036;1190;108401;-78
2021/10/21 07:03:19;;;;;;;11.20;8.90;;;;;;;14.59;62.63;98557.66;139264;1184;108391;-76
2021/10/21 07:06:24;;;;;;;12.60;9.50;;;;;;;14.64;62.88;98557.87;139070;1183;108463;-75
2021/10/21 07:09:30;;;;;;;12.80;9.20;;;;;;;14.64;63.08;98551.93;138984;1183;108401;-78
2021/10/21 07:12:36;;;;;;;10.90;9.20;;;;;;;14.62;63.23;98535.77;139047;1183;108235;-78
2021/10/21 07:15:41;;;;;;;12.40;9.40;;;;;;;14.61;63.35;98535.39;138965;1183;107245;-76
2021/10/21 07:18:46;;;;;;;13.70;10.00;;;;;;;14.61;63.40;98531.96;138946;1190;108526;-71
2021/10/21 07:21:52;;;;;;;21.80;15.70;;;;;;;14.59;63.50;98526.46;138948;1183;108400;-71
2021/10/21 07:24:57;;;;;;;34.40;23.00;;;;;;;14.56;63.36;98515.71;138979;1184;107506;-71
2021/10/21 07:28:03;;;;;;;42.10;26.80;;;;;;;14.51;63.37;98512.20;139004;1183;108227;-71
2021/10/21 07:31:14;;;;;;;33.50;17.30;;;;;;;14.47;63.53;98520.17;138974;1182;108370;-70
2021/10/21 07:34:19;;;;;;;22.80;14.80;;;;;;;14.42;63.79;98515.02;138983;1190;108345;-72
2021/10/21 07:37:24;;;;;;;19.70;15.50;;;;;;;14.38;63.89;98500.32;138880;1197;108465;-71
2021/10/21 07:40:30;;;;;;;26.50;20.90;;;;;;;14.39;63.85;98499.58;138912;1183;107605;-72
2021/10/21 07:43:37;;;;;;;28.40;20.20;;;;;;;14.42;63.89;98487.16;138951;1183;107448;-72
2021/10/21 07:46:45;;;;;;;35.10;23.60;;;;;;;14.46;63.83;98487.45;139009;1184;108418;-71
2021/10/21 07:49:51;;;;;;;17.30;12.40;;;;;;;14.48;63.91;98491.16;138947;1184;108373;-74
2021/10/21 07:52:56;;;;;;;18.30;13.70;;;;;;;14.50;63.85;98484.73;138904;1183;108526;-73
2021/10/21 07:56:02;;;;;;;19.10;14.50;;;;;;;14.50;63.91;98495.25;138970;1190;107451;-73
2021/10/21 07:59:08;;;;;;;19.60;14.50;;;;;;;14.47;63.86;98486.58;138958;1183;108077;-73
2021/10/21 08:02:14;;;;;;;23.60;16.30;;;;;;;14.46;63.87;98486.92;138972;1190;108543;-75
2021/10/21 08:05:19;;;;;;;24.80;16.20;;;;;;;14.46;64.02;98485.52;138915;1183;108347;-75
2021/10/21 08:08:25;;;;;;;37.70;23.00;;;;;;;14.43;64.02;98497.79;138968;1183;108458;-75
2021/10/21 08:11:31;;;;;;;37.00;22.60;;;;;;;14.42;64.09;98503.38;138931;1183;108598;-72
2021/10/21 08:14:37;;;;;;;20.50;14.00;;;;;;;14.40;64.22;98502.45;138912;1190;108497;-73
2021/10/21 08:17:43;;;;;;;14.80;11.90;;;;;;;14.38;64.54;98493.02;138920;1182;107520;-73
2021/10/21 08:20:49;;;;;;;14.10;10.80;;;;;;;14.38;64.47;98494.42;138894;1183;108423;-75
2021/10/21 08:23:55;;;;;;;15.00;11.10;;;;;;;14.42;64.71;98485.79;138954;1184;107448;-73
2021/10/21 08:27:01;;;;;;;17.90;11.90;;;;;;;14.46;64.81;98483.60;138910;1182;107223;-73
2021/10/21 08:30:08;;;;;;;14.50;12.30;;;;;;;14.45;65.04;98492.66;138956;1183;109260;-73
2021/10/21 08:33:15;;;;;;;16.50;12.40;;;;;;;14.45;64.75;98495.55;138998;1184;108370;-73
2021/10/21 08:36:22;;;;;;;15.40;12.10;;;;;;;14.45;65.06;98488.73;138941;1183;108398;-73
2021/10/21 08:39:27;;;;;;;14.50;11.90;;;;;;;14.43;65.23;98485.20;138987;1190;108580;-74
2021/10/21 08:42:33;;;;;;;24.50;15.60;;;;;;;14.38;65.29;98491.56;138923;1190;108582;-74
2021/10/21 08:45:38;;;;;;;51.20;22.80;;;;;;;14.37;65.54;98480.39;138916;1190;108436;-73
2021/10/21 08:48:45;;;;;;;22.60;15.70;;;;;;;14.37;65.67;98472.84;139012;1183;108625;-73
2021/10/21 08:51:55;;;;;;;17.90;12.80;;;;;;;14.38;66.04;98461.52;138998;1183;107395;-73
2021/10/21 08:55:01;;;;;;;16.90;12.60;;;;;;;14.40;65.97;98448.16;139003;1190;108447;-73
2021/10/21 08:58:06;;;;;;;14.30;11.70;;;;;;;14.40;66.19;98424.69;138984;1184;108662;-74
2021/10/21 09:01:18;;;;;;;14.40;12.10;;;;;;;14.38;66.16;98421.27;138977;1183;108527;-73
2021/10/21 09:04:36;;;;;;;16.60;12.60;;;;;;;14.34;66.21;98406.27;139004;1184;108448;-74
2021/10/21 09:07:58;;;;;;;14.40;10.60;;;;;;;14.31;66.19;98377.96;138928;1190;108625;-74
2021/10/21 09:11:06;;;;;;;13.70;10.60;;;;;;;14.35;66.23;98379.73;138985;1190;109393;-73
2021/10/21 09:14:14;;;;;;;16.70;12.20;;;;;;;14.45;66.19;98388.99;139018;1183;108561;-73
2021/10/21 09:17:27;;;;;;;16.90;12.40;;;;;;;14.60;66.27;98396.64;138936;1190;108212;-72
2021/10/21 09:20:43;;;;;;;16.30;12.10;;;;;;;14.74;65.88;98392.97;138944;1183;108636;-73
2021/10/21 09:23:48;;;;;;;16.40;12.10;;;;;;;14.90;65.93;98373.95;138944;1183;108370;-72
2021/10/21 09:27:06;;;;;;;14.00;11.40;;;;;;;15.03;65.71;98374.25;138958;1183;108513;-73
2021/10/21 09:30:14;;;;;;;14.40;12.00;;;;;;;15.09;65.87;98366.29;138922;1183;106821;-73
2021/10/21 09:33:20;;;;;;;18.10;11.70;;;;;;;15.12;65.84;98359.08;138898;1183;108440;-73
2021/10/21 09:36:26;;;;;;;18.60;12.50;;;;;;;15.14;65.78;98353.10;138901;1183;108186;-72
2021/10/21 09:39:48;;;;;;;15.00;11.40;;;;;;;15.16;65.79;98348.64;138865;1190;108488;-73
2021/10/21 09:42:59;;;;;;;14.30;11.10;;;;;;;15.18;65.69;98339.94;138912;1190;108461;-73
2021/10/21 09:46:06;;;;;;;13.40;10.80;;;;;;;15.26;65.75;98338.15;138919;1182;108380;-78
2021/10/21 09:49:25;;;;;;;13.60;10.70;;;;;;;15.42;65.52;98321.66;138965;1182;108014;-72
2021/10/21 09:52:30;;;;;;;14.30;10.90;;;;;;;15.58;65.49;98301.75;138980;1183;108285;-72
2021/10/21 09:55:38;;;;;;;13.70;11.70;;;;;;;15.73;65.38;98291.80;138972;1183;107324;-72
2021/10/21 09:58:44;;;;;;;16.90;12.30;;;;;;;15.84;65.38;98300.00;138966;1183;108741;-71
2021/10/21 10:01:50;;;;;;;15.30;12.10;;;;;;;15.89;65.26;98305.12;138933;1183;109603;-73
2021/10/21 10:04:56;;;;;;;16.50;12.50;;;;;;;15.94;65.18;98293.52;138945;1183;108410;-72
2021/10/21 10:08:02;;;;;;;14.70;11.80;;;;;;;16.03;65.20;98285.89;138911;1183;108498;-72
2021/10/21 10:11:12;;;;;;;15.40;12.50;;;;;;;16.10;65.02;98283.30;138944;1190;108443;-72
2021/10/21 10:14:18;;;;;;;15.90;12.50;;;;;;;16.16;64.95;98280.84;138917;1183;108304;-72
2021/10/21 10:17:24;;;;;;;15.40;12.30;;;;;;;16.20;64.83;98281.45;138956;1183;108501;-74
2021/10/21 10:20:30;;;;;;;14.50;11.90;;;;;;;16.22;64.66;98270.89;138904;1183;108529;-76
2021/10/21 10:23:39;;;;;;;16.40;11.90;;;;;;;16.23;64.62;98266.33;138956;1183;108562;-76
2021/10/21 10:26:47;;;;;;;16.40;12.10;;;;;;;16.20;64.53;98246.64;139001;1184;108589;-76
2021/10/21 10:29:53;;;;;;;15.40;11.90;;;;;;;16.20;64.62;98219.36;139041;1183;108652;-76
2021/10/21 10:32:58;;;;;;;17.00;12.70;;;;;;;16.22;64.53;98212.17;139016;1182;108649;-76
2021/10/21 10:36:28;;;;;;;14.10;11.50;;;;;;;16.22;64.56;98211.91;138982;1183;108396;-77
2021/10/21 10:39:50;;;;;;;15.70;11.90;;;;;;;16.20;64.55;98202.14;139042;1183;108560;-76
2021/10/21 10:43:01;;;;;;;15.30;11.70;;;;;;;16.12;64.44;98198.64;138999;1183;108438;-76
2021/10/21 10:46:09;;;;;;;17.10;11.30;;;;;;;16.03;64.70;98216.44;138989;1183;108410;-76
2021/10/21 10:49:42;;;;;;;15.60;12.40;;;;;;;15.97;64.62;98215.89;138958;1183;108208;-76
2021/10/21 10:52:52;;;;;;;17.20;12.00;;;;;;;15.90;64.44;98214.61;139002;1183;108450;-76
2021/10/21 10:55:58;;;;;;;13.70;10.90;;;;;;;15.86;64.66;98218.46;138966;1183;107559;-75
2021/10/21 10:59:21;;;;;;;13.40;10.90;;;;;;;15.89;64.72;98200.55;139024;1184;108597;-76
2021/10/21 11:02:33;;;;;;;14.10;10.50;;;;;;;15.94;64.59;98203.72;139023;1183;108492;-78
2021/10/21 11:05:52;;;;;;;;;;;;;;;15.95;64.63;98204.65;139028;1190;107726;-76
2021/10/21 11:09:03;;;;;;;13.80;10.50;;;;;;;15.99;64.64;98207.33;139018;1183;108500;-75
2021/10/21 11:12:12;;;;;;;12.00;10.00;;;;;;;16.01;64.65;98204.69;139247;1190;108391;-81
2021/10/21 11:15:38;;;;;;;12.90;10.10;;;;;;;16.03;64.58;98194.71;139009;1183;107507;-76
2021/10/21 11:18:53;;;;;;;10.60;9.10;;;;;;;16.05;64.54;98187.91;139031;1183;108509;-79
2021/10/21 11:21:59;;;;;;;12.90;9.80;;;;;;;16.09;64.54;98175.55;138970;1183;108415;-79
2021/10/21 11:25:07;;;;;;;13.00;8.60;;;;;;;16.11;64.52;98169.52;138932;1196;108271;-78
2021/10/21 11:28:13;;;;;;;11.30;8.80;;;;;;;16.15;64.27;98175.71;138982;1183;108623;-78
2021/10/21 11:31:18;;;;;;;10.60;8.80;;;;;;;16.19;64.37;98175.91;138960;1190;108419;-75
2021/10/21 11:34:30;;;;;;;10.80;8.60;;;;;;;16.26;64.10;98184.37;138986;1183;108413;-74
2021/10/21 11:37:38;;;;;;;11.60;8.40;;;;;;;16.34;64.13;98176.83;139002;1183;108534;-76
2021/10/21 11:40:45;;;;;;;11.10;8.50;;;;;;;16.40;64.02;98166.55;139027;1176;108389;-77
2021/10/21 11:43:51;;;;;;;11.00;8.30;;;;;;;16.45;64.12;98159.63;139121;1183;108612;-76
2021/10/21 11:47:02;;;;;;;11.30;8.10;;;;;;;16.48;63.67;98164.42;139029;1183;108400;-76
2021/10/21 11:50:10;;;;;;;11.20;8.80;;;;;;;16.51;63.60;98166.14;139154;1183;108592;-76
2021/10/21 11:53:17;;;;;;;12.40;8.30;;;;;;;16.52;63.47;98152.98;139070;1183;108482;-78
2021/10/21 11:56:24;;;;;;;11.40;7.90;;;;;;;16.54;63.36;98139.48;139051;1189;108426;-77
2021/10/21 11:59:38;;;;;;;9.70;7.50;;;;;;;16.52;62.97;98126.80;139077;1189;107321;-77
2021/10/21 12:02:44;;;;;;;9.70;7.40;;;;;;;16.50;62.96;98123.05;139084;1183;108825;-83
2021/10/21 12:05:53;;;;;;;10.20;7.00;;;;;;;16.48;63.18;98128.18;139183;1183;108312;-83
2021/10/21 12:08:59;;;;;;;13.10;7.50;;;;;;;16.47;63.07;98127.92;139158;1183;108393;-82
2021/10/21 12:12:07;;;;;;;9.10;7.00;;;;;;;16.44;62.87;98136.73;139189;1183;108287;-75
2021/10/21 12:15:13;;;;;;;10.90;7.50;;;;;;;16.42;62.75;98133.04;139061;1183;108415;-80
2021/10/21 12:18:20;;;;;;;8.10;6.60;;;;;;;16.40;62.55;98138.80;139118;1183;107317;-85
2021/10/21 12:21:36;;;;;;;10.40;5.80;;;;;;;16.39;62.37;98132.27;139273;1190;108376;-80
2021/10/21 12:24:43;;;;;;;10.40;6.30;;;;;;;16.38;62.20;98135.34;139332;1183;108467;-74
2021/10/21 12:27:58;;;;;;;8.20;5.80;;;;;;;16.37;61.65;98137.14;139077;1183;108589;-80
2021/10/21 12:31:17;;;;;;;8.30;5.80;;;;;;;16.38;61.78;98140.41;139328;1183;108412;-86
2021/10/21 12:34:27;;;;;;;7.80;5.80;;;;;;;16.43;61.76;98136.29;139498;1183;108074;-81
2021/10/21 12:37:42;;;;;;;9.60;6.50;;;;;;;16.49;61.63;98132.84;139292;1190;109309;-77
2021/10/21 12:40:57;;;;;;;8.50;5.80;;;;;;;16.55;61.34;98133.30;139273;1189;108589;-78
2021/10/21 12:44:05;;;;;;;7.40;6.00;;;;;;;16.63;61.11;98135.44;139182;1183;108749;-75
2021/10/21 12:47:14;;;;;;;7.40;5.90;;;;;;;16.71;61.19;98142.67;139043;1184;108583;-75
2021/10/21 12:50:26;;;;;;;7.90;6.10;;;;;;;16.82;61.18;98138.23;138933;1190;108486;-78
2021/10/21 12:53:29;;;;;;;;;;;;;;;16.93;61.03;98140.40;138992;1190;108365;-72
2021/10/21 12:56:37;;;;;;;11.60;6.00;;;;;;;16.97;60.95;98142.02;139032;1183;107712;-73
2021/10/21 12:59:42;;;;;;;10.70;6.60;;;;;;;16.94;60.93;98133.80;139056;1183;108539;-75
2021/10/21 13:02:58;;;;;;;11.50;7.20;;;;;;;16.88;60.78;98125.83;139113;1183;108055;-76
2021/10/21 13:06:04;;;;;;;10.10;6.70;;;;;;;16.83;60.84;98121.55;139032;1183;108487;-73
2021/10/21 13:09:09;;;;;;;12.60;7.10;;;;;;;16.79;60.84;98121.59;139210;1183;108570;-74
2021/10/21 13:12:18;;;;;;;9.70;7.00;;;;;;;16.75;60.75;98121.61;139102;1183;108430;-76
2021/10/21 13:15:24;;;;;;;10.40;6.70;;;;;;;16.79;60.56;98132.77;138996;1189;108464;-76
2021/10/21 13:18:29;;;;;;;11.20;7.50;;;;;;;16.90;60.16;98124.77;138913;1183;108299;-76
2021/10/21 13:21:35;;;;;;;14.00;9.30;;;;;;;16.93;60.25;98137.06;139030;1190;108444;-76
2021/10/21 13:24:40;;;;;;;40.80;24.80;;;;;;;16.92;59.86;98140.61;139047;1183;108489;-74
2021/10/21 13:27:47;;;;;;;79.60;41.70;;;;;;;16.87;59.54;98137.35;138993;1183;108300;-75
2021/10/21 13:30:52;;;;;;;34.00;19.40;;;;;;;16.82;59.63;98141.53;139002;1183;108263;-76
2021/10/21 13:33:58;;;;;;;205.70;74.70;;;;;;;16.78;59.14;98144.15;139014;1183;108186;-75
2021/10/21 13:37:06;;;;;;;104.50;51.80;;;;;;;16.86;59.11;98147.34;138964;1183;105908;-77
2021/10/21 13:40:13;;;;;;;79.10;38.60;;;;;;;16.97;59.01;98144.19;139106;1191;108399;-76
2021/10/21 13:43:18;;;;;;;35.70;22.90;;;;;;;16.97;58.58;98135.51;138993;1183;108496;-75
2021/10/21 13:46:24;;;;;;;10.60;7.70;;;;;;;16.94;58.43;98144.45;139007;1190;108656;-75
2021/10/21 13:49:30;;;;;;;10.40;6.00;;;;;;;16.85;58.40;98153.06;139060;1183;108403;-74
2021/10/21 13:52:35;;;;;;;14.50;11.40;;;;;;;16.78;58.66;98155.34;138990;1190;108650;-74
2021/10/21 13:55:41;;;;;;;9.20;5.20;;;;;;;16.72;58.37;98158.67;139107;1183;108510;-74
2021/10/21 13:58:48;;;;;;;7.10;4.50;;;;;;;16.68;58.69;98159.39;138969;1183;108224;-75
2021/10/21 14:01:53;;;;;;;7.30;4.30;;;;;;;16.66;58.03;98158.48;138983;1183;107886;-79
2021/10/21 14:04:58;;;;;;;8.50;3.60;;;;;;;16.65;57.44;98167.51;139147;1190;108582;-78
2021/10/21 14:08:05;;;;;;;6.80;3.70;;;;;;;16.65;56.73;98171.83;139013;1183;108442;-73
2021/10/21 14:11:10;;;;;;;7.90;2.90;;;;;;;16.64;55.69;98170.40;139024;1183;108281;-78
2021/10/21 14:14:15;;;;;;;10.10;2.50;;;;;;;16.64;55.37;98185.33;139069;1183;109202;-80